Time;durP1;ratioP1;P1;durP2;ratioP2;P2;SDS_P1;SDS_P2;PMS_P1;PMS_P2;Temp;Humidity;BMP_temperature;BMP_pressure;BME280_temperature;BME280_humidity;BME280_pressure;Samples;Min_cycle;Max_cycle;Signal;HPM_P1;HPM_P2
2022/10/25 00:03:01;;;;;;;2.55;0.47;;;;;;;20.18;48.66;101151.53;16130965;19;129211;-38
2022/10/25 00:08:23;;;;;;;1.10;0.30;;;;;;;20.17;48.96;101157.31;16127814;19;130104;-38
2022/10/25 00:13:46;;;;;;;1.02;0.35;;;;;;;20.15;48.46;101149.25;16130032;19;129466;-37
2022/10/25 00:19:10;;;;;;;1.48;0.40;;;;;;;20.15;48.90;101152.03;16127571;19;129637;-38
2022/10/25 00:24:32;;;;;;;0.95;0.30;;;;;;;20.14;48.90;101147.56;16131134;19;129372;-38
2022/10/25 00:29:54;;;;;;;0.77;0.40;;;;;;;20.14;48.75;101147.56;16130413;19;129784;-38
2022/10/25 00:35:15;;;;;;;1.55;0.45;;;;;;;20.12;48.74;101141.41;16128859;19;129100;-38
2022/10/25 00:40:37;;;;;;;1.40;0.40;;;;;;;20.11;48.50;101142.50;16128087;19;130079;-38
2022/10/25 00:46:02;;;;;;;0.80;0.30;;;;;;;20.11;48.55;101148.06;16130180;19;129270;-37
2022/10/25 00:51:30;;;;;;;1.80;0.30;;;;;;;20.10;48.54;101149.16;16123642;19;128988;-37
2022/10/25 00:56:53;;;;;;;2.95;0.60;;;;;;;20.11;48.70;101156.41;16126877;19;129469;-38
2022/10/25 01:02:17;;;;;;;1.00;0.30;;;;;;;20.08;48.87;101162.44;16123048;19;130854;-38
2022/10/25 01:07:38;;;;;;;1.60;0.50;;;;;;;20.07;48.87;101169.94;16125853;19;130396;-38
2022/10/25 01:13:01;;;;;;;1.20;0.32;;;;;;;20.07;48.47;101171.88;16122634;19;130092;-38
2022/10/25 01:18:56;;;;;;;1.85;0.47;;;;;;;20.07;48.80;101171.88;16123773;19;129744;-38
2022/10/25 01:24:27;;;;;;;1.60;0.50;;;;;;;20.06;48.71;101178.53;16119930;19;130847;-38
2022/10/25 01:30:13;;;;;;;1.42;0.38;;;;;;;20.05;48.48;101187.97;16123557;19;129438;-38
2022/10/25 01:35:48;;;;;;;1.63;0.33;;;;;;;20.04;48.65;101194.59;16122812;19;129435;-37
2022/10/25 01:41:37;;;;;;;2.53;0.60;;;;;;;20.03;48.94;101204.03;16122238;19;129304;-38
2022/10/25 01:47:04;;;;;;;0.50;0.20;;;;;;;20.02;48.68;101207.91;16124177;19;130760;-37
2022/10/25 01:52:26;;;;;;;1.83;0.40;;;;;;;19.99;48.55;101210.06;16120958;19;129512;-38
2022/10/25 01:58:21;;;;;;;1.58;0.30;;;;;;;20.03;48.33;101209.59;16124095;19;129525;-38
2022/10/25 02:04:22;;;;;;;2.38;0.50;;;;;;;19.98;48.64;101202.81;16120582;19;129017;-38
2022/10/25 02:09:53;;;;;;;1.23;0.40;;;;;;;19.99;48.87;101203.66;16118126;19;129439;-38
2022/10/25 02:15:42;;;;;;;0.88;0.35;;;;;;;19.99;48.65;101215.63;16119622;19;129359;-38
2022/10/25 02:21:05;;;;;;;1.27;0.30;;;;;;;19.97;48.66;101212.22;16117202;19;129535;-38
2022/10/25 02:26:27;;;;;;;0.60;0.20;;;;;;;19.96;48.93;101210.53;16120573;19;130706;-38
2022/10/25 02:31:49;;;;;;;1.42;0.30;;;;;;;19.96;48.45;101216.09;16120270;19;131005;-38
2022/10/25 02:37:11;;;;;;;1.02;0.30;;;;;;;19.95;48.94;101203.28;16119245;19;129338;-38
2022/10/25 02:42:32;;;;;;;1.48;0.40;;;;;;;19.95;48.56;101211.63;16119595;19;129575;-38
2022/10/25 02:47:54;;;;;;;1.00;0.52;;;;;;;19.94;48.46;101221.03;16118633;19;129301;-37
2022/10/25 02:53:16;;;;;;;1.15;0.30;;;;;;;19.93;48.92;101224.94;16117278;19;130024;-38
2022/10/25 02:58:39;;;;;;;0.90;0.22;;;;;;;19.94;48.66;101228.53;16121229;19;129452;-38
2022/10/25 03:04:01;;;;;;;1.40;0.30;;;;;;;19.93;48.64;101238.81;16119061;19;129728;-38
2022/10/25 03:09:23;;;;;;;1.35;0.20;;;;;;;19.94;48.62;101247.97;16118559;19;130526;-37
2022/10/25 03:14:45;;;;;;;0.82;0.30;;;;;;;19.92;48.91;101245.47;16116542;19;129902;-37
2022/10/25 03:20:07;;;;;;;2.42;0.43;;;;;;;19.92;48.41;101248.25;16118400;19;129449;-38
2022/10/25 03:25:29;;;;;;;0.63;0.20;;;;;;;19.90;48.60;101255.97;16130825;19;129301;-38
2022/10/25 03:30:51;;;;;;;1.65;0.30;;;;;;;19.89;48.86;101259.81;16132745;19;129556;-37
2022/10/25 03:36:13;;;;;;;0.88;0.30;;;;;;;19.89;48.41;101259.81;16134117;19;129633;-38
2022/10/25 03:41:35;;;;;;;0.65;0.20;;;;;;;19.88;48.60;101266.47;16131523;19;129728;-37
2022/10/25 03:46:56;;;;;;;1.15;0.43;;;;;;;19.87;48.59;101273.09;16129453;19;129858;-37
2022/10/25 03:52:18;;;;;;;1.10;0.30;;;;;;;19.88;48.77;101269.25;16130412;19;129719;-37
2022/10/25 03:57:40;;;;;;;1.40;0.30;;;;;;;19.87;48.81;101281.44;16131147;19;129410;-38
2022/10/25 04:03:02;;;;;;;0.95;0.30;;;;;;;19.87;48.42;101294.50;16130072;19;130791;-37
2022/10/25 04:08:24;;;;;;;0.73;0.28;;;;;;;19.85;48.77;101286.38;16126937;19;130925;-37
2022/10/25 04:13:45;;;;;;;0.50;0.32;;;;;;;19.85;48.27;101294.72;16128815;19;130405;-37
2022/10/25 04:19:07;;;;;;;0.65;0.20;;;;;;;19.85;48.26;101294.72;16128267;19;129512;-37
2022/10/25 04:24:29;;;;;;;1.02;0.20;;;;;;;19.83;48.61;101300.53;16126208;19;129436;-37
2022/10/25 04:29:51;;;;;;;0.77;0.28;;;;;;;19.84;48.38;101312.47;16128306;19;129650;-37
2022/10/25 04:35:13;;;;;;;1.27;0.30;;;;;;;19.82;48.45;101307.16;16126339;19;130045;-37
2022/10/25 04:40:34;;;;;;;1.67;0.30;;;;;;;19.82;48.36;101320.19;16130412;19;130343;-37
2022/10/25 04:45:59;;;;;;;1.25;0.35;;;;;;;19.83;48.76;101316.31;16132058;19;129720;-37
2022/10/25 04:51:21;;;;;;;0.80;0.30;;;;;;;19.82;48.75;101320.19;16128160;19;129047;-37
2022/10/25 04:56:42;;;;;;;1.55;0.20;;;;;;;19.81;48.58;101324.91;16127004;19;129810;-38
2022/10/25 05:02:04;;;;;;;1.90;0.50;;;;;;;19.81;48.39;101335.19;16132627;19;130295;-41
2022/10/25 05:07:26;;;;;;;0.28;0.13;;;;;;;19.80;48.57;101337.09;16125566;19;129512;-37
2022/10/25 05:12:47;;;;;;;1.15;0.20;;;;;;;19.81;48.68;101341.56;16124752;19;129859;-38
2022/10/25 05:18:09;;;;;;;1.15;0.30;;;;;;;19.81;48.37;101340.75;16127622;19;129794;-37
2022/10/25 05:23:33;;;;;;;0.95;0.30;;;;;;;19.81;48.68;101349.06;16124233;19;129844;-37
2022/10/25 05:28:55;;;;;;;0.65;0.30;;;;;;;19.80;48.32;101344.59;16125086;19;130231;-37
2022/10/25 05:34:17;;;;;;;1.48;0.50;;;;;;;19.81;48.83;101354.63;16123778;19;130043;-37
2022/10/25 05:39:39;;;;;;;3.30;0.50;;;;;;;19.81;48.60;101358.22;16126379;19;129603;-37
2022/10/25 05:45:00;;;;;;;6.68;0.38;;;;;;;19.81;48.77;101368.50;16124490;19;129765;-37
2022/10/25 05:50:22;;;;;;;1.63;0.20;;;;;;;19.80;48.70;101377.91;16125407;19;130213;-37
2022/10/25 05:55:44;;;;;;;2.75;0.40;;;;;;;19.80;48.63;101375.16;16121222;19;130017;-37
2022/10/25 06:01:07;;;;;;;2.22;0.30;;;;;;;19.78;48.44;101380.91;16120931;19;129717;-37
2022/10/25 06:06:29;;;;;;;1.67;0.38;;;;;;;19.78;48.60;101391.19;16120415;19;130159;-37
2022/10/25 06:11:51;;;;;;;2.47;0.30;;;;;;;19.77;48.79;101389.50;16122392;19;129561;-37
2022/10/25 06:17:12;;;;;;;2.80;0.40;;;;;;;19.76;48.89;101387.81;16122687;19;129643;-37
2022/10/25 06:22:34;;;;;;;1.42;0.20;;;;;;;19.76;48.32;101390.59;16124735;19;129367;-37
2022/10/25 06:27:56;;;;;;;2.55;0.32;;;;;;;19.75;48.44;101402.78;16120011;19;129271;-37
2022/10/25 06:33:17;;;;;;;1.63;0.40;;;;;;;19.74;48.61;101404.72;16121523;19;129226;-37
2022/10/25 06:38:40;;;;;;;4.28;0.50;;;;;;;19.75;48.47;101400.00;16122871;19;129584;-37
2022/10/25 06:44:02;;;;;;;1.45;0.40;;;;;;;19.75;48.59;101409.19;16120307;19;129647;-37
2022/10/25 06:49:27;;;;;;;0.73;0.30;;;;;;;19.76;48.80;101415.56;16117853;19;129571;-37
2022/10/25 06:54:49;;;;;;;1.63;0.30;;;;;;;19.76;48.33;101426.69;16118147;19;129959;-37
2022/10/25 07:00:11;;;;;;;1.98;0.30;;;;;;;19.76;48.57;101432.22;16132177;19;131587;-37
2022/10/25 07:05:33;;;;;;;2.63;0.30;;;;;;;19.87;48.10;101431.38;16137260;19;129275;-37
2022/10/25 07:10:55;;;;;;;1.85;0.30;;;;;;;20.06;48.22;101432.13;16132006;19;129460;-37
2022/10/25 07:16:19;;;;;;;0.60;0.28;;;;;;;20.33;47.27;101442.69;16130811;19;130032;-38
2022/10/25 07:21:40;;;;;;;1.60;0.30;;;;;;;20.55;46.78;101442.88;16127797;19;129670;-37
2022/10/25 07:27:02;;;;;;;1.42;0.43;;;;;;;20.58;46.78;101447.91;16134841;19;131722;-38
2022/10/25 07:32:24;;;;;;;8.02;0.50;;;;;;;20.55;46.85;101445.66;16132872;19;130763;-37
2022/10/25 07:37:46;;;;;;;1.83;0.40;;;;;;;20.71;46.81;101454.28;16135498;19;129018;-38
2022/10/25 07:43:08;;;;;;;5.57;0.65;;;;;;;20.65;46.47;101458.06;16134791;19;130704;-39
2022/10/25 07:48:30;;;;;;;4.20;0.50;;;;;;;20.88;45.93;101458.00;16127779;19;129487;-39
2022/10/25 07:53:52;;;;;;;1.20;0.40;;;;;;;20.96;46.12;101453.97;16126518;19;131163;-39
2022/10/25 07:59:13;;;;;;;5.05;0.60;;;;;;;21.42;45.08;101464.22;16133508;19;130212;-39
2022/10/25 08:04:35;;;;;;;2.10;0.70;;;;;;;21.02;46.06;101474.38;16134979;19;129417;-39
2022/10/25 08:09:57;;;;;;;1.92;0.40;;;;;;;21.03;46.02;101476.09;16132434;19;135123;-39
2022/10/25 08:15:18;;;;;;;1.77;0.30;;;;;;;21.24;45.19;101479.22;16130333;19;129680;-39
2022/10/25 08:20:40;;;;;;;2.80;0.60;;;;;;;20.98;45.53;101475.97;16128386;19;129700;-39
2022/10/25 08:26:25;;;;;;;1.95;0.50;;;;;;;20.98;45.54;101471.28;16131901;19;130842;-39
2022/10/25 08:31:46;;;;;;;4.97;0.47;;;;;;;20.84;46.33;101481.00;16133209;19;130756;-40
2022/10/25 08:37:11;;;;;;;1.15;0.40;;;;;;;20.71;46.25;101487.66;16129202;19;129302;-41
2022/10/25 08:42:46;;;;;;;1.33;0.55;;;;;;;20.65;46.39;101480.31;16130890;19;129592;-39
2022/10/25 08:48:15;;;;;;;0.77;0.40;;;;;;;20.55;46.84;101487.34;16126208;19;129830;-39
2022/10/25 08:53:47;;;;;;;4.55;0.40;;;;;;;20.50;46.69;101503.91;16131087;19;134584;-39
2022/10/25 08:59:14;;;;;;;1.92;0.50;;;;;;;20.46;46.90;101508.25;16127069;19;129772;-38
2022/10/25 09:04:35;;;;;;;5.82;0.60;;;;;;;20.40;47.22;101504.53;16129650;19;129654;-39
2022/10/25 09:10:07;;;;;;;3.13;0.50;;;;;;;20.37;47.14;101512.50;16130823;19;130999;-39
2022/10/25 09:15:52;;;;;;;2.53;0.40;;;;;;;20.29;47.34;101530.41;16124412;19;128903;-39
2022/10/25 09:21:21;;;;;;;1.27;0.35;;;;;;;20.22;47.37;101535.25;16123650;19;129470;-40
2022/10/25 09:27:04;;;;;;;2.75;0.57;;;;;;;20.20;47.67;101538.25;16124444;19;129615;-39
2022/10/25 09:32:33;;;;;;;3.50;0.50;;;;;;;20.16;47.35;101541.75;16121760;19;129787;-40
2022/10/25 09:38:11;;;;;;;3.20;0.50;;;;;;;20.12;47.44;101545.00;16126111;19;129551;-39
2022/10/25 09:43:39;;;;;;;2.65;0.50;;;;;;;20.12;47.54;101541.41;16125367;19;129576;-38
2022/10/25 09:49:01;;;;;;;3.42;0.50;;;;;;;20.09;47.75;101550.22;16124251;19;129730;-39
2022/10/25 09:54:48;;;;;;;2.10;0.40;;;;;;;20.10;47.93;101549.13;16121936;19;129642;-39
2022/10/25 10:00:14;;;;;;;3.33;0.52;;;;;;;20.05;47.75;101552.63;16123863;19;129970;-38
2022/10/25 10:05:36;;;;;;;;;;;;;;;20.01;48.12;101550.56;16123011;19;130915;-38
2022/10/25 10:10:59;;;;;;;2.35;0.75;;;;;;;20.02;47.87;101549.50;16123534;19;129575;-40
2022/10/25 10:16:25;;;;;;;4.43;0.50;;;;;;;20.00;47.83;101555.28;16121275;19;130845;-39
2022/10/25 10:21:56;;;;;;;3.60;0.88;;;;;;;20.01;47.72;101550.56;16120116;19;129503;-39
2022/10/25 10:27:20;;;;;;;3.60;0.88;;;;;;;20.02;47.70;101555.06;16120015;19;129700;-38
2022/10/25 10:32:42;;;;;;;4.25;1.08;;;;;;;20.01;47.66;101547.81;16129188;19;134957;-39
2022/10/25 10:38:22;;;;;;;6.78;1.20;;;;;;;20.04;47.91;101555.66;16134444;19;129455;-40
2022/10/25 10:43:44;;;;;;;3.67;0.90;;;;;;;20.03;47.85;101552.03;16137022;19;129430;-39
2022/10/25 10:49:09;;;;;;;2.45;0.73;;;;;;;20.05;47.88;101552.63;16135905;19;129298;-39
2022/10/25 10:54:45;;;;;;;3.60;0.93;;;;;;;20.05;48.01;101560.13;16133045;19;129374;-40
2022/10/25 11:00:21;;;;;;;4.75;0.60;;;;;;;20.04;48.04;101553.72;16128825;19;129448;-40
2022/10/25 11:05:52;;;;;;;5.55;0.98;;;;;;;20.05;48.03;101544.28;16134212;19;129372;-39
2022/10/25 11:11:21;;;;;;;4.72;1.10;;;;;;;20.05;47.79;101547.06;16133751;19;129277;-39
2022/10/25 11:16:46;;;;;;;4.78;0.75;;;;;;;20.04;47.67;101550.09;16134051;19;129692;-38
2022/10/25 11:22:37;;;;;;;3.33;0.70;;;;;;;20.03;47.91;101545.63;16131916;19;129525;-40
2022/10/25 11:28:18;;;;;;;4.97;1.10;;;;;;;20.03;47.90;101551.19;16131655;19;129751;-39
2022/10/25 11:33:48;;;;;;;5.20;1.05;;;;;;;20.02;47.72;101550.31;16134831;19;129608;-39
2022/10/25 11:39:27;;;;;;;4.13;1.30;;;;;;;20.01;47.77;101545.84;16130979;19;129634;-40
2022/10/25 11:45:01;;;;;;;9.95;1.00;;;;;;;19.99;48.15;101540.56;16128924;19;128927;-39
2022/10/25 11:50:38;;;;;;;3.38;0.80;;;;;;;19.97;47.73;101534.34;16129817;19;129130;-40
2022/10/25 11:56:23;;;;;;;4.60;0.95;;;;;;;19.96;48.00;101538.22;16131944;19;130297;-39
2022/10/25 12:02:02;;;;;;;7.15;0.98;;;;;;;19.95;47.88;101536.53;16129995;19;130567;-39
2022/10/25 12:07:33;;;;;;;7.88;1.10;;;;;;;19.96;47.87;101531.84;16129904;19;129282;-39
2022/10/25 12:13:02;;;;;;;3.97;1.05;;;;;;;19.94;47.59;101540.38;16128946;19;129058;-38
2022/10/25 12:18:40;;;;;;;8.88;2.13;;;;;;;19.89;46.22;101526.41;16129988;19;129717;-39
2022/10/25 12:24:04;;;;;;;7.43;2.30;;;;;;;19.86;45.88;101528.81;16129685;19;129569;-39
2022/10/25 12:29:49;;;;;;;7.80;1.48;;;;;;;19.81;45.52;101541.47;16128282;19;129576;-39
2022/10/25 12:35:20;;;;;;;10.37;1.80;;;;;;;19.81;45.95;101537.88;16126449;19;129667;-39
2022/10/25 12:40:46;;;;;;;8.10;1.60;;;;;;;19.81;46.25;101521.22;16130751;19;129737;-38
2022/10/25 12:46:15;;;;;;;15.20;2.20;;;;;;;19.84;45.96;101534.59;16129533;19;129676;-38
2022/10/25 12:51:53;;;;;;;6.75;1.30;;;;;;;19.87;46.14;101523.00;16126717;19;130430;-39
2022/10/25 12:57:24;;;;;;;12.93;1.45;;;;;;;19.87;46.14;101528.56;16126484;19;129262;-40
2022/10/25 13:03:09;;;;;;;7.97;1.60;;;;;;;19.91;45.65;101540.03;16127949;19;129812;-40
2022/10/25 13:08:38;;;;;;;7.80;1.33;;;;;;;19.92;46.06;101539.81;16126852;19;129164;-40
2022/10/25 13:14:00;;;;;;;6.95;1.10;;;;;;;19.89;45.75;101523.63;16128164;19;129830;-39
2022/10/25 13:19:25;;;;;;;9.63;1.30;;;;;;;19.92;45.81;101523.16;16127579;19;130087;-39
2022/10/25 13:25:07;;;;;;;9.68;1.70;;;;;;;19.92;45.84;101523.16;16126159;19;129919;-39
2022/10/25 13:30:29;;;;;;;5.70;1.08;;;;;;;19.91;45.97;101524.22;16123140;19;130576;-39
2022/10/25 13:35:52;;;;;;;7.40;1.17;;;;;;;19.90;46.06;101532.78;16124308;19;129652;-39
2022/10/25 13:41:18;;;;;;;5.95;1.13;;;;;;;19.90;46.30;101527.22;16125395;19;129240;-39
2022/10/25 13:46:40;;;;;;;9.55;1.25;;;;;;;19.88;46.27;101519.16;16126207;19;129645;-39
2022/10/25 13:52:05;;;;;;;5.40;1.00;;;;;;;19.87;46.05;101511.91;16127690;19;133983;-39
2022/10/25 13:57:49;;;;;;;6.22;1.10;;;;;;;19.88;46.27;101513.59;16124330;19;129090;-40
2022/10/25 14:03:11;;;;;;;7.32;0.90;;;;;;;19.85;45.85;101505.72;16119147;19;130076;-39
2022/10/25 14:08:46;;;;;;;10.07;0.85;;;;;;;19.85;46.07;101514.06;16122616;19;129806;-39
2022/10/25 14:14:10;;;;;;;5.32;0.80;;;;;;;19.85;46.39;101502.97;16123739;19;128838;-40
2022/10/25 14:19:47;;;;;;;2.72;0.82;;;;;;;19.85;45.88;101491.84;16122628;19;131678;-40
2022/10/25 14:25:41;;;;;;;3.80;0.75;;;;;;;19.86;46.24;101499.09;16121197;19;130323;-39
2022/10/25 14:31:06;;;;;;;3.53;1.23;;;;;;;19.84;46.02;101485.47;16119551;19;130246;-39
2022/10/25 14:36:35;;;;;;;3.28;0.60;;;;;;;19.84;46.02;101485.47;16117844;19;129532;-38
2022/10/25 14:42:02;;;;;;;2.63;0.80;;;;;;;19.83;46.51;101478.22;16121526;19;134073;-39
2022/10/25 14:47:29;;;;;;;2.70;0.55;;;;;;;19.84;46.72;101479.06;16117038;19;129373;-39
2022/10/25 14:52:51;;;;;;;5.85;0.80;;;;;;;19.83;46.27;101469.03;16119830;19;129283;-39
2022/10/25 14:58:16;;;;;;;2.93;0.80;;;;;;;19.82;46.48;101467.34;16118800;19;129876;-40
2022/10/25 15:03:41;;;;;;;3.10;0.55;;;;;;;19.82;46.64;101459.00;16117973;19;129269;-39
2022/10/25 15:09:04;;;;;;;4.55;0.73;;;;;;;19.81;46.81;101465.69;16118245;19;129505;-39
2022/10/25 15:14:47;;;;;;;2.30;0.75;;;;;;;19.81;46.68;101458.19;16118451;19;129574;-39
2022/10/25 15:20:15;;;;;;;4.43;0.40;;;;;;;19.80;46.77;101466.75;16129859;19;130314;-39
2022/10/25 15:25:37;;;;;;;2.75;0.57;;;;;;;19.80;46.57;101456.50;16134909;19;129726;-39
2022/10/25 15:31:03;;;;;;;2.33;0.40;;;;;;;19.80;46.74;101453.72;16131078;19;130508;-42
2022/10/25 15:36:27;;;;;;;2.83;0.50;;;;;;;19.77;47.06;101448.63;16130158;19;130063;-39
2022/10/25 15:41:49;;;;;;;1.38;0.50;;;;;;;19.77;46.87;101447.81;16133343;19;129136;-39
2022/10/25 15:47:36;;;;;;;1.50;0.50;;;;;;;19.76;47.07;101435.00;16128178;19;129438;-39
2022/10/25 15:52:57;;;;;;;2.05;0.57;;;;;;;19.74;46.69;101445.50;16132364;19;129512;-39
2022/10/25 15:58:19;;;;;;;2.38;0.50;;;;;;;19.73;47.23;101443.81;16132646;19;129280;-39
2022/10/25 16:03:41;;;;;;;3.33;0.50;;;;;;;19.72;46.82;101447.66;16131757;19;129787;-39
2022/10/25 16:09:03;;;;;;;2.17;0.40;;;;;;;19.72;47.24;101437.44;16130864;19;129898;-39
2022/10/25 16:14:25;;;;;;;1.60;0.30;;;;;;;19.69;46.95;101441.50;16129818;19;130158;-39
2022/10/25 16:19:47;;;;;;;1.10;0.45;;;;;;;19.69;47.30;101444.28;16129918;19;129566;-39
2022/10/25 16:25:09;;;;;;;3.70;0.50;;;;;;;19.67;47.15;101440.94;16129545;19;129602;-39
2022/10/25 16:30:35;;;;;;;1.45;0.25;;;;;;;19.67;47.07;101442.84;16124889;19;129249;-41
2022/10/25 16:36:00;;;;;;;1.95;0.50;;;;;;;19.66;47.35;101439.22;16129226;19;129530;-39
2022/10/25 16:41:25;;;;;;;1.33;0.30;;;;;;;19.66;47.17;101432.81;16126280;19;130885;-41
2022/10/25 16:46:46;;;;;;;0.75;0.35;;;;;;;19.66;47.39;101427.28;16125557;19;129746;-39
2022/10/25 16:52:08;;;;;;;1.25;0.40;;;;;;;19.65;47.46;101420.88;16128221;19;129502;-39
2022/10/25 16:57:30;;;;;;;0.77;0.30;;;;;;;19.64;47.22;101418.34;16127113;19;129839;-39
2022/10/25 17:02:51;;;;;;;0.80;0.38;;;;;;;19.63;47.72;101420.28;16125166;19;129335;-39
2022/10/25 17:08:13;;;;;;;3.33;0.55;;;;;;;19.63;47.89;101425.84;16125828;19;129093;-39
2022/10/25 17:13:37;;;;;;;1.85;0.28;;;;;;;19.64;47.46;101423.88;16125396;19;129828;-39
2022/10/25 17:18:59;;;;;;;3.10;0.40;;;;;;;19.62;47.58;101418.59;16118172;19;131906;-38
2022/10/25 17:24:22;;;;;;;2.15;0.30;;;;;;;19.61;47.84;101418.84;16123234;19;129669;-40
2022/10/25 17:29:43;;;;;;;2.92;0.30;;;;;;;19.62;48.35;101424.13;16125882;19;129647;-38
2022/10/25 17:35:05;;;;;;;3.03;0.35;;;;;;;19.67;48.44;101418.72;16122900;19;130109;-38
2022/10/25 17:40:27;;;;;;;14.50;0.35;;;;;;;19.73;48.75;101416.03;16120707;19;129134;-38
2022/10/25 17:45:50;;;;;;;3.25;0.30;;;;;;;19.77;48.70;101420.03;16123700;19;129408;-41
2022/10/25 17:51:13;;;;;;;4.65;0.38;;;;;;;19.81;49.34;101415.69;16120871;19;129391;-39
2022/10/25 17:56:35;;;;;;;5.38;0.68;;;;;;;19.84;49.55;101417.97;16123013;19;129682;-38
2022/10/25 18:01:57;;;;;;;4.97;0.60;;;;;;;19.86;49.52;101410.25;16121644;19;135104;-39
2022/10/25 18:07:19;;;;;;;19.30;1.02;;;;;;;19.90;49.58;101408.69;16120744;19;129248;-41
2022/10/25 18:12:40;;;;;;;22.83;1.27;;;;;;;19.92;49.98;101412.06;16121084;19;129592;-39
2022/10/25 18:18:05;;;;;;;16.10;0.83;;;;;;;19.95;50.52;101403.22;16120574;19;129867;-39
2022/10/25 18:23:27;;;;;;;12.07;0.88;;;;;;;19.97;50.33;101401.06;16118780;19;130588;-39
2022/10/25 18:28:49;;;;;;;7.95;0.70;;;;;;;20.00;50.64;101399.75;16120530;19;130297;-39
2022/10/25 18:34:10;;;;;;;5.63;0.80;;;;;;;20.03;50.92;101398.44;16118913;19;129749;-40
2022/10/25 18:39:32;;;;;;;12.70;1.55;;;;;;;20.03;50.62;101396.50;16117413;19;129496;-39
2022/10/25 18:44:54;;;;;;;27.13;1.02;;;;;;;20.07;51.04;101405.16;16118217;19;129396;-39
2022/10/25 18:50:15;;;;;;;10.70;0.60;;;;;;;20.07;50.80;101394.06;16115271;19;130479;-44
2022/10/25 18:55:42;;;;;;;9.77;0.88;;;;;;;20.08;51.31;101399.38;16133283;19;132127;-40
2022/10/25 19:01:19;;;;;;;10.63;0.50;;;;;;;20.10;51.02;101388.03;16134381;19;131450;-43
2022/10/25 19:06:43;;;;;;;2.85;0.55;;;;;;;20.10;51.19;101376.91;16135278;19;129922;-40
2022/10/25 19:12:04;;;;;;;2.92;0.45;;;;;;;20.12;51.72;101388.63;16129504;19;129527;-41
2022/10/25 19:17:26;;;;;;;6.50;0.55;;;;;;;20.12;51.71;101385.84;16132481;19;130169;-40
2022/10/25 19:22:48;;;;;;;3.45;0.40;;;;;;;20.14;51.47;101373.41;16130732;19;129031;-41
2022/10/25 19:28:10;;;;;;;5.43;0.88;;;;;;;20.14;51.61;101365.06;16133132;19;129142;-44
2022/10/25 19:33:31;;;;;;;6.15;0.75;;;;;;;20.14;51.59;101359.50;16129698;19;129770;-40
2022/10/25 19:38:53;;;;;;;5.78;0.50;;;;;;;20.16;52.05;101362.06;16129522;19;130014;-40
2022/10/25 19:44:15;;;;;;;6.13;0.40;;;;;;;20.17;51.90;101349.84;16128032;19;129619;-40
2022/10/25 19:49:37;;;;;;;2.55;0.35;;;;;;;20.18;51.37;101345.13;16129722;19;130567;-41
2022/10/25 19:54:58;;;;;;;4.55;0.70;;;;;;;20.17;51.10;101335.09;16130889;19;129968;-40
2022/10/25 20:00:20;;;;;;;3.67;0.50;;;;;;;20.15;51.35;101329.81;16132402;19;130284;-40
2022/10/25 20:05:42;;;;;;;7.60;0.60;;;;;;;20.12;51.50;101324.75;16131180;19;131661;-40
2022/10/25 20:11:04;;;;;;;7.50;0.70;;;;;;;20.08;51.71;101327.16;16130964;19;129826;-41
2022/10/25 20:16:27;;;;;;;0.98;0.25;;;;;;;20.05;51.43;101324.88;16130695;19;129478;-40
2022/10/25 20:21:49;;;;;;;5.30;0.73;;;;;;;20.04;51.16;101323.19;16121708;19;129800;-42
2022/10/25 20:27:11;;;;;;;4.18;0.60;;;;;;;20.03;51.20;101329.00;16128326;19;129394;-40
2022/10/25 20:32:32;;;;;;;2.97;0.50;;;;;;;19.99;51.73;101321.16;16128893;19;130618;-40
2022/10/25 20:37:54;;;;;;;2.38;0.50;;;;;;;19.96;51.46;101315.22;16127401;19;129241;-41
2022/10/25 20:43:16;;;;;;;1.38;0.20;;;;;;;19.95;51.59;101313.53;16126335;19;129563;-40
2022/10/25 20:48:38;;;;;;;3.17;0.50;;;;;;;19.93;51.91;101310.16;16126649;19;129433;-43
2022/10/25 20:53:59;;;;;;;3.20;0.38;;;;;;;19.90;51.86;101316.19;16127483;19;129137;-43
2022/10/25 20:59:21;;;;;;;4.75;0.50;;;;;;;19.88;52.04;101316.44;16128419;19;129200;-41
2022/10/25 21:04:43;;;;;;;1.23;0.30;;;;;;;19.87;52.21;101306.44;16126229;19;129048;-41
2022/10/25 21:10:14;;;;;;;0.95;0.30;;;;;;;19.84;52.24;101312.47;16123079;19;130089;-40
2022/10/25 21:15:36;;;;;;;1.65;0.20;;;;;;;19.84;52.25;101318.00;16116680;19;130425;-41
2022/10/25 21:21:03;;;;;;;1.38;0.30;;;;;;;19.82;52.09;101309.94;16120259;19;129959;-41
2022/10/25 21:26:25;;;;;;;1.10;0.40;;;;;;;19.80;52.19;101317.66;16121667;19;129374;-43
2022/10/25 21:31:47;;;;;;;2.25;0.30;;;;;;;19.80;52.22;101322.41;16125016;19;129294;-41
2022/10/25 21:37:09;;;;;;;0.47;0.20;;;;;;;19.77;52.18;101312.59;16122631;19;129764;-41
2022/10/25 21:42:31;;;;;;;2.45;0.47;;;;;;;19.77;52.63;101317.31;16122104;19;130089;-41
2022/10/25 21:47:53;;;;;;;0.55;0.22;;;;;;;19.75;52.26;101319.50;16124829;19;130042;-41
2022/10/25 21:53:15;;;;;;;3.60;0.40;;;;;;;19.73;52.18;101316.13;16120795;19;129642;-41
2022/10/25 21:58:41;;;;;;;0.45;0.30;;;;;;;19.74;52.21;101323.34;16121771;19;129715;-41
2022/10/25 22:04:03;;;;;;;0.85;0.25;;;;;;;19.73;52.61;101316.13;16122089;19;129161;-42
2022/10/25 22:09:25;;;;;;;0.85;0.28;;;;;;;19.70;52.66;101311.91;16120251;19;129899;-41
2022/10/25 22:14:47;;;;;;;0.93;0.50;;;;;;;19.69;52.11;101310.22;16123153;19;129618;-41
2022/10/25 22:20:09;;;;;;;0.90;0.20;;;;;;;19.66;52.65;101300.44;16121312;19;129367;-42
2022/10/25 22:25:31;;;;;;;1.10;0.40;;;;;;;19.66;52.28;101300.44;16121032;19;129463;-41
2022/10/25 22:31:01;;;;;;;2.55;0.30;;;;;;;19.67;52.30;101290.19;16139305;19;131618;-41
2022/10/25 22:36:25;;;;;;;1.92;0.30;;;;;;;19.66;52.37;101288.50;16138189;19;129471;-41
2022/10/25 22:41:50;;;;;;;0.27;0.13;;;;;;;19.64;52.41;101282.34;16134540;19;130020;-42
2022/10/25 22:47:12;;;;;;;1.40;0.38;;;;;;;19.64;52.33;101280.41;16133559;19;129351;-43
2022/10/25 22:52:33;;;;;;;0.50;0.20;;;;;;;19.62;52.57;101276.22;16136789;19;129884;-42
2022/10/25 22:57:55;;;;;;;1.30;0.40;;;;;;;19.61;52.58;101275.34;16134285;19;130198;-41
2022/10/25 23:03:17;;;;;;;0.40;0.30;;;;;;;19.62;52.54;101262.34;16132742;19;132827;-41
2022/10/25 23:08:39;;;;;;;0.40;0.30;;;;;;;19.60;52.37;101257.00;16133898;19;129743;-42
2022/10/25 23:14:02;;;;;;;0.60;0.20;;;;;;;19.60;52.79;101258.94;16135929;19;129773;-42
2022/10/25 23:19:23;;;;;;;0.55;0.30;;;;;;;19.59;52.66;101255.31;16131670;19;129519;-41
2022/10/25 23:24:45;;;;;;;0.80;0.30;;;;;;;19.57;52.37;101246.38;16134693;19;130835;-42
2022/10/25 23:30:08;;;;;;;0.70;0.20;;;;;;;19.58;52.58;101234.19;16134662;19;130036;-41
2022/10/25 23:35:33;;;;;;;0.55;0.20;;;;;;;19.56;52.79;101233.63;16132899;19;129452;-43
2022/10/25 23:40:55;;;;;;;0.60;0.20;;;;;;;19.56;52.69;101216.97;16130140;19;129269;-42
2022/10/25 23:46:17;;;;;;;0.90;0.30;;;;;;;19.55;52.63;101215.28;16132176;19;134303;-41
2022/10/25 23:51:39;;;;;;;0.20;0.13;;;;;;;19.56;52.55;101216.13;16130557;19;129523;-41
2022/10/25 23:57:00;;;;;;;0.50;0.30;;;;;;;19.53;52.42;101198.88;16132406;19;129542;-41
